Time;durP1;ratioP1;P1;durP2;ratioP2;P2;SDS_P1;SDS_P2;PMS_P1;PMS_P2;Temp;Humidity;BMP_temperature;BMP_pressure;BME280_temperature;BME280_humidity;BME280_pressure;Samples;Min_cycle;Max_cycle;Signal;HPM_P1;HPM_P2
2021/05/12 00:00:20;;;;;;;12.73;11.80;;;23.70;81.70;;;;;;3549674;40;20485;-52
2021/05/12 00:02:48;;;;;;;13.40;12.40;;;23.70;81.80;;;;;;3556581;40;20532;-55
2021/05/12 00:05:16;;;;;;;12.10;11.50;;;23.70;81.70;;;;;;3560605;40;21000;-53
2021/05/12 00:07:44;;;;;;;12.60;11.77;;;23.70;81.70;;;;;;3567138;40;21069;-53
2021/05/12 00:10:12;;;;;;;12.60;11.80;;;23.70;81.70;;;;;;3566429;40;20502;-53
2021/05/12 00:12:41;;;;;;;12.52;11.82;;;23.70;81.70;;;;;;3566524;40;20537;-54
2021/05/12 00:15:12;;;;;;;12.20;11.40;;;23.70;81.70;;;;;;3564677;40;20284;-54
2021/05/12 00:17:41;;;;;;;13.00;12.30;;;23.70;81.70;;;;;;3562478;40;20496;-52
2021/05/12 00:20:10;;;;;;;11.93;11.30;;;23.70;81.70;;;;;;3566167;40;20881;-53
2021/05/12 00:22:43;;;;;;;12.77;12.07;;;23.70;81.60;;;;;;3556367;40;20485;-56
2021/05/12 00:25:11;;;;;;;12.65;11.95;;;23.70;81.70;;;;;;3540501;40;20769;-58
2021/05/12 00:27:38;;;;;;;12.80;11.80;;;23.60;81.60;;;;;;3567612;40;20292;-55
2021/05/12 00:30:06;;;;;;;12.73;12.03;;;23.60;81.50;;;;;;3557574;40;20476;-54
2021/05/12 00:32:33;;;;;;;13.47;12.60;;;23.60;81.50;;;;;;3556687;40;20475;-50
2021/05/12 00:35:05;;;;;;;12.20;11.50;;;23.70;81.60;;;;;;3555618;40;20568;-52
2021/05/12 00:37:31;;;;;;;12.30;11.60;;;23.60;81.50;;;;;;3556227;40;20772;-54
2021/05/12 00:39:58;;;;;;;12.70;12.00;;;23.60;81.40;;;;;;3556151;40;20497;-55
2021/05/12 00:42:28;;;;;;;12.53;11.73;;;23.60;81.50;;;;;;3565217;40;20486;-55
2021/05/12 00:44:58;;;;;;;12.40;11.67;;;23.60;81.40;;;;;;3555022;40;21173;-53
2021/05/12 00:47:26;;;;;;;12.67;11.87;;;23.60;81.40;;;;;;3556742;40;20568;-54
2021/05/12 00:49:56;;;;;;;12.60;11.80;;;23.60;81.40;;;;;;3559696;40;20859;-53
2021/05/12 00:52:24;;;;;;;12.83;12.03;;;23.60;81.40;;;;;;3556952;40;20479;-57
2021/05/12 00:54:52;;;;;;;11.82;11.23;;;23.60;81.40;;;;;;3557632;40;20495;-54
2021/05/12 00:57:19;;;;;;;13.30;12.50;;;23.60;81.40;;;;;;3564176;40;20230;-53
2021/05/12 00:59:48;;;;;;;12.77;12.07;;;23.60;81.40;;;;;;3556991;40;20474;-55
2021/05/12 01:02:17;;;;;;;12.90;12.10;;;23.60;81.40;;;;;;3556456;40;20481;-53
2021/05/12 01:04:45;;;;;;;12.27;11.60;;;23.60;82.10;;;;;;3555589;40;20493;-53
2021/05/12 01:07:14;;;;;;;13.10;12.40;;;23.60;81.40;;;;;;3558752;40;20473;-54
2021/05/12 01:09:42;;;;;;;12.87;12.20;;;23.60;81.40;;;;;;3557179;40;20481;-52
2021/05/12 01:12:09;;;;;;;12.40;11.80;;;23.60;81.40;;;;;;3556284;40;20569;-54
2021/05/12 01:14:37;;;;;;;12.30;11.77;;;23.60;81.40;;;;;;3556631;40;20918;-54
2021/05/12 01:17:05;;;;;;;13.50;12.50;;;23.60;81.40;;;;;;3548786;40;20857;-53
2021/05/12 01:19:34;;;;;;;12.87;12.10;;;23.60;81.40;;;;;;3546112;40;20493;-54
2021/05/12 01:22:01;;;;;;;11.90;11.20;;;23.60;81.40;;;;;;3554545;40;20711;-56
2021/05/12 01:24:29;;;;;;;13.03;12.30;;;23.60;81.40;;;;;;3555787;40;20482;-56
2021/05/12 01:26:56;;;;;;;13.10;12.30;;;23.60;81.40;;;;;;3557225;40;20485;-56
2021/05/12 01:29:22;;;;;;;12.90;12.30;;;23.60;81.40;;;;;;3551148;40;20477;-56
2021/05/12 01:31:52;;;;;;;12.50;11.80;;;23.60;81.40;;;;;;3554366;40;20505;-56
2021/05/12 01:34:21;;;;;;;13.60;12.80;;;23.60;81.40;;;;;;3567833;40;20492;-55
2021/05/12 01:36:50;;;;;;;12.10;11.40;;;23.60;81.40;;;;;;3567490;40;20479;-52
2021/05/12 01:39:21;;;;;;;11.53;10.93;;;23.60;81.40;;;;;;3562704;40;20515;-53
2021/05/12 01:41:49;;;;;;;12.63;11.83;;;23.60;81.30;;;;;;3556874;40;20484;-55
2021/05/12 01:44:17;;;;;;;11.67;11.17;;;23.60;81.40;;;;;;3561199;40;20487;-54
2021/05/12 01:46:46;;;;;;;12.57;11.90;;;23.50;81.20;;;;;;3567883;40;20487;-55
2021/05/12 01:49:14;;;;;;;11.50;11.00;;;23.60;81.30;;;;;;3563015;40;20486;-55
2021/05/12 01:51:44;;;;;;;12.80;12.10;;;23.60;81.20;;;;;;3557777;40;20481;-54
2021/05/12 01:54:12;;;;;;;13.50;12.70;;;23.60;81.20;;;;;;3562416;40;20505;-53
2021/05/12 01:56:43;;;;;;;13.07;12.37;;;23.60;81.30;;;;;;3566733;40;20659;-53
2021/05/12 01:59:10;;;;;;;12.80;12.10;;;23.60;81.20;;;;;;3566816;40;20727;-54
2021/05/12 02:01:38;;;;;;;12.77;11.97;;;23.60;81.20;;;;;;3567606;40;20867;-55
2021/05/12 02:04:08;;;;;;;12.03;11.43;;;23.60;81.20;;;;;;3566742;40;20830;-54
2021/05/12 02:06:37;;;;;;;12.40;11.70;;;23.60;81.20;;;;;;3558954;40;20540;-53
2021/05/12 02:09:07;;;;;;;11.77;11.07;;;23.60;81.10;;;;;;3564846;40;20488;-54
2021/05/12 02:11:34;;;;;;;13.30;12.50;;;23.60;81.10;;;;;;3558311;40;20231;-54
2021/05/12 02:14:03;;;;;;;12.07;11.37;;;23.60;81.10;;;;;;3557923;40;20501;-54
2021/05/12 02:16:31;;;;;;;12.70;11.80;;;23.60;81.00;;;;;;3557318;40;20485;-55
2021/05/12 02:18:57;;;;;;;11.70;11.10;;;23.60;81.00;;;;;;3559289;40;20498;-56
2021/05/12 02:21:25;;;;;;;11.67;10.97;;;23.60;81.00;;;;;;3564332;40;20601;-55
2021/05/12 02:23:52;;;;;;;12.13;11.43;;;23.60;81.00;;;;;;3557031;40;21063;-55
2021/05/12 02:26:19;;;;;;;11.90;11.20;;;23.60;80.90;;;;;;3556639;40;20715;-56
2021/05/12 02:28:47;;;;;;;12.13;11.43;;;23.60;80.90;;;;;;3556718;40;20478;-52
2021/05/12 02:31:15;;;;;;;11.60;10.90;;;23.60;81.00;;;;;;3547377;40;20485;-53
2021/05/12 02:33:42;;;;;;;12.67;11.97;;;23.60;80.90;;;;;;3556156;40;20486;-55
2021/05/12 02:36:09;;;;;;;13.20;12.20;;;23.60;80.90;;;;;;3556951;40;20476;-53
2021/05/12 02:38:38;;;;;;;12.07;11.37;;;23.60;80.90;;;;;;3550075;40;20514;-55
2021/05/12 02:41:08;;;;;;;11.47;10.77;;;23.60;80.90;;;;;;3547078;40;20486;-54
2021/05/12 02:43:36;;;;;;;11.87;11.17;;;23.60;80.90;;;;;;3553524;40;20495;-56
2021/05/12 02:46:03;;;;;;;13.37;12.47;;;23.60;80.90;;;;;;3557018;40;20494;-53
2021/05/12 02:48:35;;;;;;;11.47;10.97;;;23.60;80.90;;;;;;3556134;40;20577;-54
2021/05/12 02:51:01;;;;;;;12.57;11.90;;;23.60;80.90;;;;;;3556753;40;20492;-53
2021/05/12 02:53:29;;;;;;;11.40;10.90;;;23.60;80.80;;;;;;3551107;40;20478;-51
2021/05/12 02:55:55;;;;;;;12.37;11.77;;;23.60;80.80;;;;;;3545994;40;20492;-54
2021/05/12 02:58:22;;;;;;;11.30;10.70;;;23.60;80.80;;;;;;3552062;40;20521;-54
2021/05/12 03:00:50;;;;;;;11.17;10.50;;;23.60;80.70;;;;;;3556725;40;20481;-53
2021/05/12 03:03:17;;;;;;;11.37;10.73;;;23.60;80.70;;;;;;3564936;40;20473;-54
2021/05/12 03:05:46;;;;;;;11.27;10.63;;;23.60;80.70;;;;;;3563719;40;20751;-55
2021/05/12 03:08:13;;;;;;;11.43;10.93;;;23.70;80.80;;;;;;3556997;40;20533;-53
2021/05/12 03:10:40;;;;;;;10.90;10.30;;;23.60;80.70;;;;;;3557570;40;20494;-54
2021/05/12 03:13:08;;;;;;;11.83;11.17;;;23.60;80.70;;;;;;3556869;40;20478;-54
2021/05/12 03:15:37;;;;;;;12.57;11.87;;;23.60;80.60;;;;;;3554306;40;20845;-55
2021/05/12 03:18:05;;;;;;;12.07;11.47;;;23.70;80.70;;;;;;3566636;40;20474;-55
2021/05/12 03:20:33;;;;;;;12.07;11.57;;;23.70;80.70;;;;;;3566205;40;20909;-53
2021/05/12 03:23:01;;;;;;;12.83;12.13;;;23.70;80.70;;;;;;3556555;40;20485;-56
2021/05/12 03:25:29;;;;;;;11.83;11.23;;;23.70;80.70;;;;;;3555125;40;20494;-57
2021/05/12 03:28:00;;;;;;;12.40;11.80;;;23.70;80.60;;;;;;3555696;40;20482;-56
2021/05/12 03:30:29;;;;;;;12.57;11.97;;;23.70;80.60;;;;;;3558271;40;20853;-52
2021/05/12 03:32:57;;;;;;;13.07;12.40;;;23.70;80.60;;;;;;3565619;40;20577;-53
2021/05/12 03:35:26;;;;;;;12.77;12.17;;;23.70;80.50;;;;;;3566163;40;20483;-53
2021/05/12 03:37:56;;;;;;;12.37;11.77;;;23.70;80.50;;;;;;3566329;40;20488;-57
2021/05/12 03:40:27;;;;;;;12.90;12.20;;;23.70;80.50;;;;;;3565771;40;20495;-56
2021/05/12 03:42:56;;;;;;;12.10;11.50;;;23.70;80.50;;;;;;3556540;40;20481;-55
2021/05/12 03:45:23;;;;;;;12.53;11.93;;;23.70;80.50;;;;;;3556983;40;20241;-54
2021/05/12 03:47:51;;;;;;;12.97;12.27;;;23.70;80.50;;;;;;3566503;40;20472;-52
2021/05/12 03:50:23;;;;;;;13.37;12.70;;;23.70;80.50;;;;;;3565428;40;20482;-53
2021/05/12 03:52:51;;;;;;;13.87;13.17;;;23.70;80.50;;;;;;3555107;40;20482;-52
2021/05/12 03:55:18;;;;;;;13.90;13.20;;;23.70;80.40;;;;;;3555199;40;20486;-53
2021/05/12 03:57:45;;;;;;;14.13;13.53;;;23.70;80.40;;;;;;3564730;40;20566;-56
2021/05/12 04:00:14;;;;;;;13.13;12.52;;;23.80;80.50;;;;;;3561177;40;20505;-56
2021/05/12 04:02:43;;;;;;;14.03;13.33;;;23.80;80.40;;;;;;3555000;40;20340;-54
2021/05/12 04:05:13;;;;;;;13.73;13.02;;;23.80;80.30;;;;;;3555187;40;21175;-56
2021/05/12 04:07:40;;;;;;;14.70;14.00;;;23.80;80.30;;;;;;3554898;40;20223;-52
2021/05/12 04:10:09;;;;;;;14.50;13.70;;;23.80;80.20;;;;;;3555078;40;21190;-55
2021/05/12 04:12:36;;;;;;;14.90;14.20;;;23.90;80.30;;;;;;3554758;40;20492;-54
2021/05/12 04:15:05;;;;;;;13.87;13.07;;;23.90;80.20;;;;;;3563266;40;20837;-54
2021/05/12 04:17:32;;;;;;;14.20;13.50;;;23.90;80.10;;;;;;3562660;40;20893;-55
2021/05/12 04:19:59;;;;;;;14.05;13.45;;;23.90;80.00;;;;;;3551923;40;20476;-55
2021/05/12 04:22:25;;;;;;;13.60;13.10;;;23.90;80.00;;;;;;3549942;40;20311;-53
2021/05/12 04:24:52;;;;;;;13.73;13.03;;;23.90;80.00;;;;;;3560881;40;20312;-56
2021/05/12 04:27:19;;;;;;;14.80;14.00;;;23.90;79.90;;;;;;3563110;40;20780;-54
2021/05/12 04:29:46;;;;;;;13.87;13.17;;;24.00;80.00;;;;;;3563202;40;20278;-55
2021/05/12 04:32:13;;;;;;;14.57;13.97;;;24.00;79.90;;;;;;3564222;40;20531;-53
2021/05/12 04:34:40;;;;;;;14.07;13.47;;;24.00;79.80;;;;;;3563109;40;20500;-53
2021/05/12 04:37:07;;;;;;;14.40;13.70;;;24.00;79.80;;;;;;3562890;40;20495;-53
2021/05/12 04:39:34;;;;;;;14.27;13.33;;;24.00;79.70;;;;;;3563491;40;20238;-56
2021/05/12 04:42:00;;;;;;;13.93;13.30;;;24.00;79.70;;;;;;3562692;40;20490;-56
2021/05/12 04:44:27;;;;;;;13.63;13.03;;;24.10;79.70;;;;;;3552926;40;20490;-53
2021/05/12 04:46:56;;;;;;;14.00;13.40;;;24.10;79.70;;;;;;3553684;40;20475;-54
2021/05/12 04:49:23;;;;;;;13.80;13.20;;;24.10;79.60;;;;;;3559218;40;20486;-54
2021/05/12 04:51:50;;;;;;;13.73;13.03;;;24.10;79.50;;;;;;3556461;40;20474;-55
2021/05/12 04:54:17;;;;;;;13.83;13.13;;;24.10;79.40;;;;;;3552194;40;20504;-56
2021/05/12 04:56:43;;;;;;;13.87;13.17;;;24.20;79.40;;;;;;3554965;40;20573;-57
2021/05/12 04:59:10;;;;;;;13.83;13.13;;;24.20;79.40;;;;;;3561312;40;20532;-55
2021/05/12 05:01:37;;;;;;;14.02;13.40;;;24.20;79.30;;;;;;3560412;40;20569;-53
2021/05/12 05:04:04;;;;;;;14.10;13.40;;;24.20;79.20;;;;;;3560861;40;20253;-55
2021/05/12 05:06:33;;;;;;;13.40;12.90;;;24.20;79.20;;;;;;3553175;40;20487;-56
2021/05/12 05:09:07;;;;;;;12.60;12.10;;;24.20;79.20;;;;;;3550636;40;20522;-56
2021/05/12 05:11:33;;;;;;;13.33;12.70;;;24.20;79.10;;;;;;3549387;40;20487;-55
2021/05/12 05:14:00;;;;;;;13.40;12.80;;;24.20;79.10;;;;;;3549656;40;20486;-55
2021/05/12 05:16:27;;;;;;;14.33;13.57;;;24.20;79.10;;;;;;3554412;40;20550;-52
2021/05/12 05:18:54;;;;;;;13.50;13.00;;;24.20;79.00;;;;;;3555862;40;20892;-52
2021/05/12 05:21:20;;;;;;;13.67;13.07;;;24.20;78.90;;;;;;3551483;40;20576;-56
2021/05/12 05:23:48;;;;;;;13.80;13.20;;;24.30;79.10;;;;;;3548504;40;20513;-54
2021/05/12 05:26:14;;;;;;;13.73;13.07;;;24.30;79.10;;;;;;3548881;40;20486;-54
2021/05/12 05:28:41;;;;;;;12.97;12.47;;;24.30;79.10;;;;;;3548372;40;20480;-52
2021/05/12 05:31:09;;;;;;;13.80;13.20;;;24.30;79.10;;;;;;3547729;40;20494;-55
2021/05/12 05:33:54;;;;;;;13.65;13.05;;;24.30;79.00;;;;;;3546466;40;20806;-54
2021/05/12 05:36:40;;;;;;;14.20;13.50;;;24.30;79.00;;;;;;3553376;40;20227;-54
2021/05/12 05:39:35;;;;;;;14.53;13.73;;;24.30;79.00;;;;;;3556513;40;20489;-52
2021/05/12 05:42:20;;;;;;;13.27;12.67;;;24.30;78.90;;;;;;3553335;40;21179;-54
2021/05/12 05:45:07;;;;;;;14.33;13.57;;;24.30;78.90;;;;;;3556495;40;20734;-57
2021/05/12 05:47:52;;;;;;;14.40;13.70;;;24.30;78.90;;;;;;3541239;40;20495;-54
2021/05/12 05:50:38;;;;;;;14.10;13.50;;;24.30;78.90;;;;;;3541664;40;20953;-56
2021/05/12 05:53:23;;;;;;;13.90;13.30;;;24.20;78.90;;;;;;3552761;40;20244;-54
2021/05/12 05:56:09;;;;;;;12.67;12.27;;;24.30;78.90;;;;;;3551547;40;20515;-55
2021/05/12 05:58:54;;;;;;;13.07;12.57;;;24.20;78.80;;;;;;3546333;40;20487;-55
2021/05/12 06:01:40;;;;;;;13.43;12.70;;;24.20;78.80;;;;;;3551651;40;20611;-56
2021/05/12 06:04:07;;;;;;;13.33;12.70;;;24.20;78.70;;;;;;3552079;40;20816;-52
2021/05/12 06:06:54;;;;;;;14.23;13.10;;;24.20;78.80;;;;;;3553033;40;20521;-53
2021/05/12 06:09:40;;;;;;;13.73;12.90;;;24.20;78.90;;;;;;3552298;40;20521;-56
2021/05/12 06:12:28;;;;;;;13.00;12.20;;;24.30;79.10;;;;;;3543374;40;20503;-55
2021/05/12 06:15:19;;;;;;;13.60;12.90;;;24.30;79.20;;;;;;3531374;40;20222;-56
2021/05/12 06:18:05;;;;;;;13.37;12.77;;;24.30;79.40;;;;;;3541053;40;20482;-55
2021/05/12 06:20:51;;;;;;;12.90;12.20;;;24.30;79.40;;;;;;3550122;40;20964;-56
2021/05/12 06:23:36;;;;;;;12.60;12.00;;;24.30;79.50;;;;;;3551493;40;20492;-56
2021/05/12 06:26:26;;;;;;;13.47;12.70;;;24.30;79.60;;;;;;3532414;40;20545;-54
2021/05/12 06:29:12;;;;;;;13.70;12.77;;;24.30;79.60;;;;;;3544427;40;20492;-52
2021/05/12 06:31:58;;;;;;;13.17;12.33;;;24.30;79.70;;;;;;3546164;40;20490;-55
2021/05/12 06:34:43;;;;;;;14.30;13.33;;;24.30;79.80;;;;;;3543324;40;20486;-55
2021/05/12 06:37:36;;;;;;;14.97;13.57;;;24.30;79.80;;;;;;3539639;40;20501;-53
2021/05/12 06:40:24;;;;;;;14.87;13.83;;;24.30;80.00;;;;;;3548616;40;20480;-54
2021/05/12 06:42:52;;;;;;;14.10;13.30;;;24.20;80.00;;;;;;3547613;40;20492;-52
2021/05/12 06:45:20;;;;;;;13.57;12.77;;;24.20;80.00;;;;;;3540760;40;20586;-55
2021/05/12 06:47:53;;;;;;;14.20;13.10;;;24.20;80.20;;;;;;3550238;40;20742;-55
2021/05/12 06:50:22;;;;;;;14.50;13.80;;;24.20;80.20;;;;;;3547440;40;21042;-56
2021/05/12 06:52:54;;;;;;;14.43;13.70;;;24.20;80.30;;;;;;3552063;40;20476;-55
2021/05/12 06:55:23;;;;;;;14.40;13.57;;;24.20;77.60;;;;;;3551318;40;20484;-56
2021/05/12 06:57:50;;;;;;;13.90;13.10;;;24.00;76.00;;;;;;3549075;40;20500;-53
2021/05/12 07:00:20;;;;;;;14.07;13.37;;;24.00;77.10;;;;;;3549321;40;21114;-53
2021/05/12 07:02:47;;;;;;;14.10;13.07;;;24.00;78.00;;;;;;3548705;40;20513;-56
2021/05/12 07:05:15;;;;;;;13.97;13.07;;;24.00;78.60;;;;;;3540060;40;20481;-55
2021/05/12 07:07:41;;;;;;;13.80;13.00;;;24.00;78.90;;;;;;3547754;40;20846;-56
2021/05/12 07:10:10;;;;;;;15.30;14.27;;;24.10;79.20;;;;;;3547666;40;20483;-55
2021/05/12 07:12:36;;;;;;;13.77;12.97;;;24.10;79.60;;;;;;3548058;40;20713;-55
2021/05/12 07:15:04;;;;;;;13.63;12.93;;;24.10;79.60;;;;;;3549018;40;20502;-56
2021/05/12 07:17:31;;;;;;;14.97;13.87;;;24.10;79.70;;;;;;3548648;40;20926;-55
2021/05/12 07:19:58;;;;;;;14.27;13.07;;;24.10;79.80;;;;;;3549453;40;20622;-55
2021/05/12 07:22:25;;;;;;;14.53;13.73;;;24.20;80.00;;;;;;3540300;40;20474;-54
2021/05/12 07:24:52;;;;;;;14.20;13.40;;;24.20;80.00;;;;;;3549215;40;20511;-56
2021/05/12 07:27:22;;;;;;;13.10;12.40;;;24.20;80.10;;;;;;3549168;40;21024;-56
2021/05/12 07:29:49;;;;;;;14.60;13.80;;;24.20;80.10;;;;;;3547596;40;20498;-55
2021/05/12 07:32:15;;;;;;;15.07;13.85;;;24.20;80.10;;;;;;3549680;40;20480;-55
2021/05/12 07:34:43;;;;;;;14.00;13.13;;;24.20;80.20;;;;;;3550696;40;20238;-56
2021/05/12 07:37:10;;;;;;;13.98;13.07;;;24.20;80.30;;;;;;3540918;40;20478;-53
2021/05/12 07:39:36;;;;;;;13.80;12.83;;;24.20;80.40;;;;;;3548976;40;20236;-56
2021/05/12 07:42:07;;;;;;;13.70;12.83;;;24.20;80.40;;;;;;3550265;40;20508;-52
2021/05/12 07:44:33;;;;;;;13.77;12.80;;;24.20;80.50;;;;;;3550166;40;20740;-55
2021/05/12 07:47:01;;;;;;;13.57;12.77;;;24.20;80.40;;;;;;3550976;40;20941;-55
2021/05/12 07:49:27;;;;;;;13.03;12.27;;;24.20;80.50;;;;;;3546352;40;20488;-55
2021/05/12 07:51:55;;;;;;;14.87;13.70;;;24.20;80.50;;;;;;3543318;40;20910;-53
2021/05/12 07:54:22;;;;;;;14.20;13.30;;;24.20;80.60;;;;;;3542760;40;20714;-53
2021/05/12 07:56:48;;;;;;;13.03;12.23;;;24.20;81.30;;;;;;3542992;40;20724;-54
2021/05/12 07:59:16;;;;;;;13.87;12.80;;;24.20;80.70;;;;;;3543684;40;20488;-52
2021/05/12 08:01:44;;;;;;;14.23;13.47;;;24.20;80.70;;;;;;3546256;40;20515;-56
2021/05/12 08:04:11;;;;;;;12.97;12.00;;;24.20;80.70;;;;;;3541445;40;20925;-56
2021/05/12 08:06:38;;;;;;;12.17;11.47;;;24.20;80.80;;;;;;3548039;40;20489;-53
2021/05/12 08:09:07;;;;;;;13.03;12.30;;;24.20;80.90;;;;;;3549980;40;21121;-56
2021/05/12 08:11:37;;;;;;;13.60;12.80;;;24.20;80.90;;;;;;3547831;40;20481;-55
2021/05/12 08:14:04;;;;;;;13.07;12.27;;;24.20;81.00;;;;;;3540032;40;21383;-55
2021/05/12 08:16:31;;;;;;;13.37;12.67;;;24.20;81.00;;;;;;3549592;40;20485;-55
2021/05/12 08:18:58;;;;;;;13.30;12.50;;;24.20;81.00;;;;;;3541152;40;20503;-56
2021/05/12 08:21:27;;;;;;;13.67;12.93;;;24.20;81.00;;;;;;3550934;40;20501;-55
2021/05/12 08:23:54;;;;;;;14.77;13.77;;;24.20;81.10;;;;;;3548961;40;20503;-53
2021/05/12 08:26:22;;;;;;;12.90;12.30;;;24.10;81.10;;;;;;3546304;40;20519;-53
2021/05/12 08:28:49;;;;;;;13.77;13.00;;;24.20;81.20;;;;;;3544826;40;20587;-53
2021/05/12 08:31:18;;;;;;;12.80;12.13;;;24.20;81.30;;;;;;3546324;40;20489;-55
2021/05/12 08:33:44;;;;;;;12.73;12.23;;;24.10;81.10;;;;;;3549493;40;20548;-55
2021/05/12 08:36:12;;;;;;;13.80;12.80;;;24.10;81.20;;;;;;3547781;40;20492;-56
2021/05/12 08:38:45;;;;;;;13.93;12.77;;;24.10;81.20;;;;;;3548607;40;20472;-53
2021/05/12 08:41:13;;;;;;;14.40;13.30;;;24.10;81.20;;;;;;3548626;40;20498;-55
2021/05/12 08:43:42;;;;;;;14.23;13.27;;;24.10;81.20;;;;;;3548612;40;20970;-53
2021/05/12 08:46:09;;;;;;;13.47;12.50;;;24.10;81.30;;;;;;3549252;40;20619;-56
2021/05/12 08:48:37;;;;;;;12.67;12.00;;;24.10;81.30;;;;;;3547659;40;21505;-56
2021/05/12 08:51:04;;;;;;;13.80;12.90;;;24.10;81.30;;;;;;3546133;40;20484;-56
2021/05/12 08:53:32;;;;;;;12.70;12.00;;;24.10;81.30;;;;;;3549624;40;20528;-55
2021/05/12 08:55:59;;;;;;;12.90;11.97;;;24.10;81.40;;;;;;3549023;40;20615;-56
2021/05/12 08:58:26;;;;;;;13.43;12.37;;;24.10;81.30;;;;;;3547274;40;20501;-55
2021/05/12 09:00:54;;;;;;;13.43;12.73;;;24.10;81.30;;;;;;3548446;40;21807;-53
2021/05/12 09:03:21;;;;;;;12.63;12.00;;;24.10;81.40;;;;;;3541668;40;20515;-56
2021/05/12 09:05:48;;;;;;;13.10;12.13;;;24.10;81.40;;;;;;3540861;40;20502;-54
2021/05/12 09:08:15;;;;;;;12.60;11.90;;;24.10;81.40;;;;;;3543575;40;20535;-55
2021/05/12 09:10:42;;;;;;;12.13;11.60;;;24.10;81.40;;;;;;3547839;40;20485;-55
2021/05/12 09:13:09;;;;;;;14.13;13.13;;;24.10;81.40;;;;;;3540513;40;20471;-56
2021/05/12 09:15:35;;;;;;;13.07;12.40;;;24.10;81.50;;;;;;3548624;40;20230;-56
2021/05/12 09:18:04;;;;;;;13.20;12.40;;;24.10;81.50;;;;;;3548945;40;20495;-55
2021/05/12 09:20:39;;;;;;;12.10;11.50;;;24.10;81.50;;;;;;3548940;40;21039;-55
2021/05/12 09:23:16;;;;;;;12.47;11.87;;;24.10;81.50;;;;;;3538546;40;20474;-56
2021/05/12 09:25:53;;;;;;;12.03;11.53;;;24.10;81.50;;;;;;3535163;40;20873;-56
2021/05/12 09:28:21;;;;;;;13.20;12.40;;;24.10;81.50;;;;;;3536769;40;20868;-53
2021/05/12 09:30:49;;;;;;;13.20;12.60;;;24.10;81.60;;;;;;3533524;40;20485;-56
2021/05/12 09:33:26;;;;;;;13.03;12.07;;;24.10;81.50;;;;;;3532247;40;20675;-53
2021/05/12 09:35:54;;;;;;;12.70;12.20;;;24.10;81.60;;;;;;3529692;40;20493;-53
2021/05/12 09:38:21;;;;;;;12.50;11.90;;;24.10;81.60;;;;;;3530951;40;20508;-56
2021/05/12 09:41:02;;;;;;;12.67;12.00;;;24.10;81.60;;;;;;3533663;40;20786;-54
2021/05/12 09:43:30;;;;;;;13.50;12.80;;;24.00;81.50;;;;;;3538330;40;20484;-55
2021/05/12 09:46:17;;;;;;;13.97;13.23;;;24.10;81.60;;;;;;3536232;40;20493;-56
2021/05/12 09:48:49;;;;;;;13.23;12.57;;;24.10;81.70;;;;;;3537619;40;20552;-52
2021/05/12 09:51:18;;;;;;;13.57;12.67;;;24.00;81.50;;;;;;3537786;40;20477;-52
2021/05/12 09:54:00;;;;;;;12.40;11.80;;;24.00;81.50;;;;;;3549376;40;20512;-53
2021/05/12 09:56:45;;;;;;;12.87;12.07;;;24.00;81.60;;;;;;3547610;40;20903;-53
2021/05/12 09:59:14;;;;;;;12.50;11.80;;;24.00;81.60;;;;;;3550530;40;20488;-55
2021/05/12 10:01:46;;;;;;;13.40;12.73;;;24.00;81.60;;;;;;3547453;40;20836;-54
2021/05/12 10:04:32;;;;;;;12.60;12.00;;;24.00;81.60;;;;;;3545351;40;21013;-53
2021/05/12 10:07:00;;;;;;;12.73;12.13;;;24.00;81.70;;;;;;3544309;40;20526;-52
2021/05/12 10:09:28;;;;;;;12.30;11.60;;;24.00;81.70;;;;;;3543812;40;20880;-51
2021/05/12 10:12:03;;;;;;;11.57;11.07;;;24.00;81.70;;;;;;3546376;40;20485;-54
2021/05/12 10:14:30;;;;;;;13.43;12.57;;;24.00;81.80;;;;;;3540961;40;20489;-53
2021/05/12 10:16:57;;;;;;;12.83;12.13;;;24.00;82.50;;;;;;3540221;40;20478;-54
2021/05/12 10:19:24;;;;;;;12.10;11.50;;;24.00;81.80;;;;;;3536257;40;20494;-52
2021/05/12 10:21:51;;;;;;;12.77;11.90;;;24.00;81.80;;;;;;3533631;40;20709;-52
2021/05/12 10:24:18;;;;;;;13.13;12.40;;;24.00;81.80;;;;;;3526119;40;20749;-55
2021/05/12 10:26:47;;;;;;;12.77;11.93;;;24.00;81.80;;;;;;3543429;40;20940;-56
2021/05/12 10:29:16;;;;;;;13.37;12.67;;;24.00;81.90;;;;;;3546406;40;20483;-53
2021/05/12 10:31:44;;;;;;;13.63;12.80;;;24.00;81.90;;;;;;3545761;40;20493;-55
2021/05/12 10:34:35;;;;;;;13.80;13.10;;;24.00;82.00;;;;;;3550416;40;20481;-55
2021/05/12 10:37:29;;;;;;;13.67;12.87;;;24.00;82.00;;;;;;3543875;40;20752;-54
2021/05/12 10:40:02;;;;;;;14.37;13.27;;;24.00;82.00;;;;;;3548645;40;20483;-54
2021/05/12 10:42:55;;;;;;;14.60;13.63;;;24.00;82.00;;;;;;3548546;40;20562;-56
2021/05/12 10:45:55;;;;;;;32.47;29.47;;;24.00;82.10;;;;;;3554168;40;20482;-55
2021/05/12 10:48:32;;;;;;;46.80;42.00;;;24.00;82.10;;;;;;3553116;40;21017;-56
2021/05/12 10:51:02;;;;;;;50.47;44.17;;;24.00;82.10;;;;;;3552928;40;20480;-56
2021/05/12 10:53:31;;;;;;;46.73;41.83;;;24.00;82.20;;;;;;3548421;40;20485;-56
2021/05/12 10:56:08;;;;;;;45.07;40.30;;;24.00;82.20;;;;;;3551170;40;20926;-56
2021/05/12 10:58:56;;;;;;;45.70;41.20;;;24.00;82.30;;;;;;3550003;40;20492;-55
2021/05/12 11:01:24;;;;;;;47.13;42.33;;;24.00;82.30;;;;;;3548634;40;20922;-56
2021/05/12 11:04:18;;;;;;;47.47;42.67;;;24.00;82.30;;;;;;3548233;40;20512;-55
2021/05/12 11:07:07;;;;;;;47.30;42.57;;;24.00;82.50;;;;;;3550031;40;20579;-55
2021/05/12 11:09:50;;;;;;;47.13;42.33;;;24.00;82.50;;;;;;3549756;40;20492;-53
2021/05/12 11:12:36;;;;;;;48.27;42.97;;;24.00;82.60;;;;;;3552067;40;20487;-53
2021/05/12 11:15:07;;;;;;;45.10;40.80;;;24.00;82.60;;;;;;3550280;40;21331;-55
2021/05/12 11:17:52;;;;;;;46.23;41.83;;;24.00;82.60;;;;;;3551190;40;20469;-55
2021/05/12 11:20:25;;;;;;;48.10;43.37;;;24.00;82.60;;;;;;3550251;40;20530;-55
2021/05/12 11:22:54;;;;;;;47.80;43.03;;;24.00;82.70;;;;;;3550368;40;20490;-55
2021/05/12 11:25:34;;;;;;;46.00;40.93;;;24.00;82.70;;;;;;3547996;40;20555;-55
2021/05/12 11:33:49;;;;;;;45.03;40.33;;;24.00;82.80;;;;;;3540297;40;21039;-54
2021/05/12 11:36:18;;;;;;;48.70;43.20;;;24.00;82.80;;;;;;3541148;40;20473;-52
2021/05/12 11:38:46;;;;;;;50.13;44.80;;;24.00;82.80;;;;;;3550782;40;20598;-54
2021/05/12 11:41:16;;;;;;;48.60;43.30;;;24.00;82.80;;;;;;3551817;40;20489;-56
2021/05/12 11:43:46;;;;;;;45.33;40.87;;;24.00;82.90;;;;;;3551192;40;20489;-55
2021/05/12 11:46:16;;;;;;;49.40;44.40;;;24.00;82.90;;;;;;3550335;40;21332;-54
2021/05/12 11:48:45;;;;;;;47.20;42.43;;;24.00;83.00;;;;;;3551762;40;20557;-54
2021/05/12 11:51:17;;;;;;;45.93;41.53;;;24.00;83.00;;;;;;3550270;40;20509;-53
2021/05/12 11:53:46;;;;;;;45.83;41.23;;;24.00;83.00;;;;;;3548505;40;20942;-54
2021/05/12 11:56:14;;;;;;;44.23;39.70;;;24.00;83.00;;;;;;3550416;40;20461;-55
2021/05/12 11:58:49;;;;;;;42.83;38.83;;;24.00;83.00;;;;;;3538904;40;20491;-55
2021/05/12 12:01:16;;;;;;;45.67;41.30;;;24.00;83.10;;;;;;3549478;40;20507;-56
2021/05/12 12:04:01;;;;;;;44.70;40.17;;;24.00;83.10;;;;;;3551851;40;20490;-54
2021/05/12 12:06:28;;;;;;;46.83;42.13;;;24.00;83.10;;;;;;3550350;40;20515;-53
2021/05/12 12:08:56;;;;;;;44.40;40.07;;;24.00;83.10;;;;;;3540570;40;20564;-54
2021/05/12 12:11:30;;;;;;;43.77;39.30;;;23.90;83.10;;;;;;3550629;40;20571;-54
2021/05/12 12:13:59;;;;;;;45.40;40.92;;;23.90;83.10;;;;;;3542172;40;20654;-57
2021/05/12 12:16:27;;;;;;;45.43;40.73;;;24.00;83.20;;;;;;3550761;40;20231;-53
2021/05/12 12:18:55;;;;;;;53.40;41.40;;;23.90;83.10;;;;;;3552015;40;20578;-54
2021/05/12 12:21:29;;;;;;;43.97;39.70;;;24.00;83.20;;;;;;3551049;40;20478;-54
2021/05/12 12:24:07;;;;;;;43.77;39.43;;;24.00;83.20;;;;;;3550004;40;21007;-54
2021/05/12 12:26:36;;;;;;;43.57;39.13;;;24.00;83.20;;;;;;3550605;40;20547;-54
2021/05/12 12:29:06;;;;;;;40.10;36.30;;;23.90;83.10;;;;;;3549875;40;20492;-54
2021/05/12 12:31:43;;;;;;;41.33;37.20;;;23.90;83.10;;;;;;3551679;40;20480;-54
2021/05/12 12:34:19;;;;;;;44.50;40.10;;;23.90;83.10;;;;;;3553363;40;20487;-55
2021/05/12 12:36:57;;;;;;;43.50;39.20;;;23.90;83.10;;;;;;3552310;40;20619;-56
2021/05/12 12:39:48;;;;;;;41.57;37.67;;;23.90;83.20;;;;;;3552543;40;20492;-56
2021/05/12 12:42:27;;;;;;;42.63;38.47;;;23.90;83.20;;;;;;3553481;40;20512;-55
2021/05/12 12:44:56;;;;;;;42.50;38.30;;;23.90;83.20;;;;;;3551542;40;20489;-56
2021/05/12 12:47:25;;;;;;;39.67;36.17;;;23.90;83.20;;;;;;3551476;40;20494;-56
2021/05/12 12:49:54;;;;;;;40.70;36.90;;;23.90;83.20;;;;;;3553088;40;20501;-55
2021/05/12 12:52:22;;;;;;;39.83;36.30;;;23.90;83.20;;;;;;3548779;40;21053;-55